sensor_id;sensor_type;location;lat;lon;timestamp;pressure;altitude;pressure_sealevel;temperature
74915;BMP280;63475;45.140;-75.616;2023-03-14T00:00:15;100153.16;;;2.53
74915;BMP280;63475;45.140;-75.616;2023-03-14T00:01:18;100155.78;;;2.53
74915;BMP280;63475;45.140;-75.616;2023-03-14T00:02:21;100146.44;;;2.52
74915;BMP280;63475;45.140;-75.616;2023-03-14T00:03:22;100132.41;;;2.37
74915;BMP280;63475;45.140;-75.616;2023-03-14T00:04:23;100161.00;;;2.53
74915;BMP280;63475;45.140;-75.616;2023-03-14T00:05:23;100148.63;;;2.50
74915;BMP280;63475;45.140;-75.616;2023-03-14T00:06:25;100135.03;;;2.37
74915;BMP280;63475;45.140;-75.616;2023-03-14T00:07:26;100149.75;;;2.49
74915;BMP280;63475;45.140;-75.616;2023-03-14T00:08:28;100148.22;;;2.44
74915;BMP280;63475;45.140;-75.616;2023-03-14T00:09:29;100155.31;;;2.47
74915;BMP280;63475;45.140;-75.616;2023-03-14T00:10:30;100153.06;;;2.46
74915;BMP280;63475;45.140;-75.616;2023-03-14T00:11:31;100151.59;;;2.45
74915;BMP280;63475;45.140;-75.616;2023-03-14T00:12:32;100153.44;;;2.44
74915;BMP280;63475;45.140;-75.616;2023-03-14T00:13:34;100134.88;;;2.30
74915;BMP280;63475;45.140;-75.616;2023-03-14T00:14:35;100133.03;;;2.30
74915;BMP280;63475;45.140;-75.616;2023-03-14T00:15:36;100143.56;;;2.34
74915;BMP280;63475;45.140;-75.616;2023-03-14T00:16:37;100158.66;;;2.44
74915;BMP280;63475;45.140;-75.616;2023-03-14T00:17:38;100151.94;;;2.43
74915;BMP280;63475;45.140;-75.616;2023-03-14T00:18:39;100153.78;;;2.43
74915;BMP280;63475;45.140;-75.616;2023-03-14T00:19:40;100154.13;;;2.41
74915;BMP280;63475;45.140;-75.616;2023-03-14T00:20:41;100135.78;;;2.38
74915;BMP280;63475;45.140;-75.616;2023-03-14T00:21:42;100143.34;;;2.43
74915;BMP280;63475;45.140;-75.616;2023-03-14T00:22:43;100150.00;;;2.40
74915;BMP280;63475;45.140;-75.616;2023-03-14T00:23:44;100154.13;;;2.41
74915;BMP280;63475;45.140;-75.616;2023-03-14T00:24:45;100147.81;;;2.42
74915;BMP280;63475;45.140;-75.616;2023-03-14T00:25:46;100151.19;;;2.43
74915;BMP280;63475;45.140;-75.616;2023-03-14T00:26:47;100150.41;;;2.42
74915;BMP280;63475;45.140;-75.616;2023-03-14T00:27:50;100141.81;;;2.42
74915;BMP280;63475;45.140;-75.616;2023-03-14T00:28:53;100137.25;;;2.35
74915;BMP280;63475;45.140;-75.616;2023-03-14T00:29:54;100132.97;;;2.27
74915;BMP280;63475;45.140;-75.616;2023-03-14T00:30:55;100152.22;;;2.38
74915;BMP280;63475;45.140;-75.616;2023-03-14T00:31:56;100136.50;;;2.34
74915;BMP280;63475;45.140;-75.616;2023-03-14T00:32:57;100144.03;;;2.40
74915;BMP280;63475;45.140;-75.616;2023-03-14T00:33:58;100147.41;;;2.40
74915;BMP280;63475;45.140;-75.616;2023-03-14T00:34:59;100150.38;;;2.39
74915;BMP280;63475;45.140;-75.616;2023-03-14T00:36:04;100148.50;;;2.39
74915;BMP280;63475;45.140;-75.616;2023-03-14T00:37:06;100145.91;;;2.39
74915;BMP280;63475;45.140;-75.616;2023-03-14T00:38:07;100149.59;;;2.38
74915;BMP280;63475;45.140;-75.616;2023-03-14T00:39:08;100127.00;;;2.26
74915;BMP280;63475;45.140;-75.616;2023-03-14T00:40:09;100136.53;;;2.38
74915;BMP280;63475;45.140;-75.616;2023-03-14T00:41:13;100129.00;;;2.33
74915;BMP280;63475;45.140;-75.616;2023-03-14T00:42:14;100145.84;;;2.35
74915;BMP280;63475;45.140;-75.616;2023-03-14T00:43:15;100137.94;;;2.32
74915;BMP280;63475;45.140;-75.616;2023-03-14T00:44:16;100140.25;;;2.37
74915;BMP280;63475;45.140;-75.616;2023-03-14T00:45:17;100144.38;;;2.38
74915;BMP280;63475;45.140;-75.616;2023-03-14T00:46:18;100137.94;;;2.32
74915;BMP280;63475;45.140;-75.616;2023-03-14T00:47:19;100144.38;;;2.38
74915;BMP280;63475;45.140;-75.616;2023-03-14T00:48:20;100139.50;;;2.36
74915;BMP280;63475;45.140;-75.616;2023-03-14T00:49:21;100118.72;;;2.21
74915;BMP280;63475;45.140;-75.616;2023-03-14T00:50:22;100120.59;;;2.20
74915;BMP280;63475;45.140;-75.616;2023-03-14T00:51:23;100134.88;;;2.30
74915;BMP280;63475;45.140;-75.616;2023-03-14T00:52:24;100107.00;;;2.11
74915;BMP280;63475;45.140;-75.616;2023-03-14T00:53:24;100139.50;;;2.36
74915;BMP280;63475;45.140;-75.616;2023-03-14T00:54:26;100137.66;;;2.37
74915;BMP280;63475;45.140;-75.616;2023-03-14T00:55:27;100130.78;;;2.29
74915;BMP280;63475;45.140;-75.616;2023-03-14T00:56:28;100133.38;;;2.29
74915;BMP280;63475;45.140;-75.616;2023-03-14T00:57:29;100132.72;;;2.32
74915;BMP280;63475;45.140;-75.616;2023-03-14T00:58:30;100144.31;;;2.34
74915;BMP280;63475;45.140;-75.616;2023-03-14T00:59:31;100106.25;;;2.11
74915;BMP280;63475;45.140;-75.616;2023-03-14T01:00:32;100139.44;;;2.33
74915;BMP280;63475;45.140;-75.616;2023-03-14T01:01:33;100125.47;;;2.22
74915;BMP280;63475;45.140;-75.616;2023-03-14T01:02:34;100131.19;;;2.31
74915;BMP280;63475;45.140;-75.616;2023-03-14T01:03:35;100138.59;;;2.29
74915;BMP280;63475;45.140;-75.616;2023-03-14T01:04:36;100132.22;;;2.26
74915;BMP280;63475;45.140;-75.616;2023-03-14T01:05:38;100109.25;;;2.13
74915;BMP280;63475;45.140;-75.616;2023-03-14T01:06:39;100139.00;;;2.31
74915;BMP280;63475;45.140;-75.616;2023-03-14T01:07:40;100137.84;;;2.28
74915;BMP280;63475;45.140;-75.616;2023-03-14T01:08:41;100110.72;;;2.10
74915;BMP280;63475;45.140;-75.616;2023-03-14T01:09:43;100129.19;;;2.21
74915;BMP280;63475;45.140;-75.616;2023-03-14T01:10:44;100141.22;;;2.29
74915;BMP280;63475;45.140;-75.616;2023-03-14T01:11:45;100108.44;;;2.09
74915;BMP280;63475;45.140;-75.616;2023-03-14T01:12:47;100149.81;;;2.29
74915;BMP280;63475;45.140;-75.616;2023-03-14T01:13:48;100134.88;;;2.30
74915;BMP280;63475;45.140;-75.616;2023-03-14T01:14:49;100140.81;;;2.27
74915;BMP280;63475;45.140;-75.616;2023-03-14T01:15:50;100145.34;;;2.30
74915;BMP280;63475;45.140;-75.616;2023-03-14T01:16:51;100144.59;;;2.29
74915;BMP280;63475;45.140;-75.616;2023-03-14T01:17:52;100147.97;;;2.30
74915;BMP280;63475;45.140;-75.616;2023-03-14T01:18:53;100145.34;;;2.30
74915;BMP280;63475;45.140;-75.616;2023-03-14T01:19:54;100148.31;;;2.28
74915;BMP280;63475;45.140;-75.616;2023-03-14T01:20:55;100139.63;;;2.21
74915;BMP280;63475;45.140;-75.616;2023-03-14T01:21:56;100152.03;;;2.27
74915;BMP280;63475;45.140;-75.616;2023-03-14T01:22:56;100143.84;;;2.29
74915;BMP280;63475;45.140;-75.616;2023-03-14T01:24:01;100147.56;;;2.28
74915;BMP280;63475;45.140;-75.616;2023-03-14T01:25:02;100150.50;;;2.26
74915;BMP280;63475;45.140;-75.616;2023-03-14T01:26:03;100144.53;;;2.26
74915;BMP280;63475;45.140;-75.616;2023-03-14T01:27:04;100152.03;;;2.27
74915;BMP280;63475;45.140;-75.616;2023-03-14T01:28:05;100148.25;;;2.25
74915;BMP280;63475;45.140;-75.616;2023-03-14T01:29:06;100153.88;;;2.27
74915;BMP280;63475;45.140;-75.616;2023-03-14T01:30:08;100149.00;;;2.25
74915;BMP280;63475;45.140;-75.616;2023-03-14T01:31:10;100151.63;;;2.25
74915;BMP280;63475;45.140;-75.616;2023-03-14T01:32:11;100152.38;;;2.26
74915;BMP280;63475;45.140;-75.616;2023-03-14T01:33:12;100149.00;;;2.25
74915;BMP280;63475;45.140;-75.616;2023-03-14T01:34:14;100124.94;;;2.13
74915;BMP280;63475;45.140;-75.616;2023-03-14T01:35:15;100148.25;;;2.25
74915;BMP280;63475;45.140;-75.616;2023-03-14T01:36:16;100143.78;;;2.25
74915;BMP280;63475;45.140;-75.616;2023-03-14T01:37:18;100130.16;;;2.13
74915;BMP280;63475;45.140;-75.616;2023-03-14T01:38:18;100143.00;;;2.21
74915;BMP280;63475;45.140;-75.616;2023-03-14T01:39:19;100129.34;;;2.09
74915;BMP280;63475;45.140;-75.616;2023-03-14T01:40:20;100147.47;;;2.21
74915;BMP280;63475;45.140;-75.616;2023-03-14T01:41:24;100143.34;;;2.20
74915;BMP280;63475;45.140;-75.616;2023-03-14T01:42:25;100129.34;;;2.09
74915;BMP280;63475;45.140;-75.616;2023-03-14T01:43:27;100147.13;;;2.22
74915;BMP280;63475;45.140;-75.616;2023-03-14T01:44:28;100133.94;;;2.15
74915;BMP280;63475;45.140;-75.616;2023-03-14T01:47:06;100146.72;;;2.20
74915;BMP280;63475;45.140;-75.616;2023-03-14T01:48:07;100124.81;;;2.06
74915;BMP280;63475;45.140;-75.616;2023-03-14T01:50:12;100146.72;;;2.20
74915;BMP280;63475;45.140;-75.616;2023-03-14T01:51:22;100142.94;;;2.18
74915;BMP280;63475;45.140;-75.616;2023-03-14T01:52:35;100141.03;;;2.15
74915;BMP280;63475;45.140;-75.616;2023-03-14T01:53:38;100124.00;;;2.01
74915;BMP280;63475;45.140;-75.616;2023-03-14T01:55:58;100145.53;;;2.18
74915;BMP280;63475;45.140;-75.616;2023-03-14T01:57:07;100137.72;;;2.18
74915;BMP280;63475;45.140;-75.616;2023-03-14T01:58:09;100140.66;;;2.16
74915;BMP280;63475;45.140;-75.616;2023-03-14T01:59:11;100121.03;;;2.03
74915;BMP280;63475;45.140;-75.616;2023-03-14T02:00:15;100143.69;;;2.18
74915;BMP280;63475;45.140;-75.616;2023-03-14T02:01:18;100141.03;;;2.15
74915;BMP280;63475;45.140;-75.616;2023-03-14T02:02:21;100141.38;;;2.13
74915;BMP280;63475;45.140;-75.616;2023-03-14T02:03:24;100148.50;;;2.16
74915;BMP280;63475;45.140;-75.616;2023-03-14T02:04:30;100142.88;;;2.14
74915;BMP280;63475;45.140;-75.616;2023-03-14T02:05:34;100140.66;;;2.16
74915;BMP280;63475;45.140;-75.616;2023-03-14T02:07:01;100140.66;;;2.16
74915;BMP280;63475;45.140;-75.616;2023-03-14T02:08:07;100145.16;;;2.16
74915;BMP280;63475;45.140;-75.616;2023-03-14T02:09:10;100142.53;;;2.16
74915;BMP280;63475;45.140;-75.616;2023-03-14T02:10:11;100143.28;;;2.16
74915;BMP280;63475;45.140;-75.616;2023-03-14T02:11:13;100136.53;;;2.15
74915;BMP280;63475;45.140;-75.616;2023-03-14T02:12:16;100141.44;;;2.17
74915;BMP280;63475;45.140;-75.616;2023-03-14T02:13:19;100140.66;;;2.16
74915;BMP280;63475;45.140;-75.616;2023-03-14T02:14:29;100134.69;;;2.16
74915;BMP280;63475;45.140;-75.616;2023-03-14T02:15:31;100133.59;;;2.17
74915;BMP280;63475;45.140;-75.616;2023-03-14T02:16:34;100138.81;;;2.17
74915;BMP280;63475;45.140;-75.616;2023-03-14T02:17:36;100133.94;;;2.15
74915;BMP280;63475;45.140;-75.616;2023-03-14T02:18:37;100127.19;;;2.14
74915;BMP280;63475;45.140;-75.616;2023-03-14T02:22:14;100103.50;;;2.03
74915;BMP280;63475;45.140;-75.616;2023-03-14T02:26:36;100126.78;;;2.12
74915;BMP280;63475;45.140;-75.616;2023-03-14T02:27:39;100118.09;;;2.04
74915;BMP280;63475;45.140;-75.616;2023-03-14T02:28:40;100116.69;;;2.11
74915;BMP280;63475;45.140;-75.616;2023-03-14T02:30:48;100117.78;;;2.10
74915;BMP280;63475;45.140;-75.616;2023-03-14T02:31:49;100119.31;;;2.11
74915;BMP280;63475;45.140;-75.616;2023-03-14T02:32:54;100099.00;;;2.00
74915;BMP280;63475;45.140;-75.616;2023-03-14T02:33:57;100094.13;;;1.99
74915;BMP280;63475;45.140;-75.616;2023-03-14T02:35:01;100109.59;;;2.11
74915;BMP280;63475;45.140;-75.616;2023-03-14T02:36:10;100115.59;;;2.12
74915;BMP280;63475;45.140;-75.616;2023-03-14T02:37:13;100096.44;;;2.04
74915;BMP280;63475;45.140;-75.616;2023-03-14T02:38:24;100105.91;;;2.12
74915;BMP280;63475;45.140;-75.616;2023-03-14T02:39:37;100066.59;;;1.82
74915;BMP280;63475;45.140;-75.616;2023-03-14T02:40:38;100110.38;;;2.12
74915;BMP280;63475;45.140;-75.616;2023-03-14T02:41:39;100103.63;;;2.11
74915;BMP280;63475;45.140;-75.616;2023-03-14T02:42:40;100107.34;;;2.10
74915;BMP280;63475;45.140;-75.616;2023-03-14T02:43:41;100113.31;;;2.10
74915;BMP280;63475;45.140;-75.616;2023-03-14T02:44:54;100077.56;;;1.91
74915;BMP280;63475;45.140;-75.616;2023-03-14T02:45:55;100103.22;;;2.09
74915;BMP280;63475;45.140;-75.616;2023-03-14T02:46:56;100092.63;;;1.98
74915;BMP280;63475;45.140;-75.616;2023-03-14T02:48:02;100108.44;;;2.09
74915;BMP280;63475;45.140;-75.616;2023-03-14T02:49:08;100111.41;;;2.07
74915;BMP280;63475;45.140;-75.616;2023-03-14T02:50:17;100103.84;;;1.98
74915;BMP280;63475;45.140;-75.616;2023-03-14T02:51:20;100106.19;;;2.07
74915;BMP280;63475;45.140;-75.616;2023-03-14T02:52:21;100095.63;;;2.00
74915;BMP280;63475;45.140;-75.616;2023-03-14T02:53:31;100100.22;;;2.07
74915;BMP280;63475;45.140;-75.616;2023-03-14T02:54:34;100105.44;;;2.07
74915;BMP280;63475;45.140;-75.616;2023-03-14T02:55:35;100094.97;;;2.07
74915;BMP280;63475;45.140;-75.616;2023-03-14T02:56:35;100098.34;;;2.07
74915;BMP280;63475;45.140;-75.616;2023-03-14T02:57:37;100100.97;;;2.07
74915;BMP280;63475;45.140;-75.616;2023-03-14T02:58:38;100086.97;;;1.96
74915;BMP280;63475;45.140;-75.616;2023-03-14T02:59:39;100102.06;;;2.06
74915;BMP280;63475;45.140;-75.616;2023-03-14T03:00:40;100100.22;;;2.07
74915;BMP280;63475;45.140;-75.616;2023-03-14T03:01:42;100078.38;;;1.95
74915;BMP280;63475;45.140;-75.616;2023-03-14T03:02:42;100094.56;;;2.04
74915;BMP280;63475;45.140;-75.616;2023-03-14T03:03:43;100090.81;;;2.02
74915;BMP280;63475;45.140;-75.616;2023-03-14T03:04:44;100097.19;;;2.04
74915;BMP280;63475;45.140;-75.616;2023-03-14T03:05:50;100093.47;;;2.06
74915;BMP280;63475;45.140;-75.616;2023-03-14T03:06:51;100091.22;;;2.04
74915;BMP280;63475;45.140;-75.616;2023-03-14T03:07:52;100079.19;;;1.99
74915;BMP280;63475;45.140;-75.616;2023-03-14T03:08:53;100085.22;;;2.03
74915;BMP280;63475;45.140;-75.616;2023-03-14T03:09:54;100087.50;;;2.05
74915;BMP280;63475;45.140;-75.616;2023-03-14T03:10:56;100086.00;;;2.04
74915;BMP280;63475;45.140;-75.616;2023-03-14T03:11:57;100082.22;;;2.01
74915;BMP280;63475;45.140;-75.616;2023-03-14T03:13:01;100078.84;;;2.01
74915;BMP280;63475;45.140;-75.616;2023-03-14T03:14:02;100046.69;;;1.74
74915;BMP280;63475;45.140;-75.616;2023-03-14T03:15:06;100047.91;;;1.80
74915;BMP280;63475;45.140;-75.616;2023-03-14T03:16:08;100081.47;;;2.01
74915;BMP280;63475;45.140;-75.616;2023-03-14T03:17:09;100075.88;;;2.02
74915;BMP280;63475;45.140;-75.616;2023-03-14T03:18:10;100075.88;;;2.02
74915;BMP280;63475;45.140;-75.616;2023-03-14T03:19:11;100075.13;;;2.02
74915;BMP280;63475;45.140;-75.616;2023-03-14T03:20:14;100078.50;;;2.02
74915;BMP280;63475;45.140;-75.616;2023-03-14T03:21:15;100075.13;;;2.02
74915;BMP280;63475;45.140;-75.616;2023-03-14T03:22:16;100083.72;;;2.02
74915;BMP280;63475;45.140;-75.616;2023-03-14T03:23:17;100076.66;;;2.03
74915;BMP280;63475;45.140;-75.616;2023-03-14T03:24:18;100079.25;;;2.03
74915;BMP280;63475;45.140;-75.616;2023-03-14T03:25:19;100070.25;;;2.00
74915;BMP280;63475;45.140;-75.616;2023-03-14T03:26:20;100073.63;;;2.01
74915;BMP280;63475;45.140;-75.616;2023-03-14T03:27:21;100061.91;;;1.91
74915;BMP280;63475;45.140;-75.616;2023-03-14T03:28:22;100071.78;;;2.01
74915;BMP280;63475;45.140;-75.616;2023-03-14T03:29:23;100066.84;;;1.96
74915;BMP280;63475;45.140;-75.616;2023-03-14T03:30:24;100048.44;;;1.89
74915;BMP280;63475;45.140;-75.616;2023-03-14T03:31:25;100054.88;;;1.95
74915;BMP280;63475;45.140;-75.616;2023-03-14T03:32:26;100066.53;;;2.01
74915;BMP280;63475;45.140;-75.616;2023-03-14T03:33:27;100067.66;;;2.00
74915;BMP280;63475;45.140;-75.616;2023-03-14T03:34:29;100068.41;;;2.01
74915;BMP280;63475;45.140;-75.616;2023-03-14T03:35:29;100034.56;;;1.85
74915;BMP280;63475;45.140;-75.616;2023-03-14T03:36:31;100065.03;;;2.00
74915;BMP280;63475;45.140;-75.616;2023-03-14T03:37:32;100063.19;;;2.01
74915;BMP280;63475;45.140;-75.616;2023-03-14T03:38:33;100068.75;;;1.99
74915;BMP280;63475;45.140;-75.616;2023-03-14T03:39:34;100065.03;;;2.00
74915;BMP280;63475;45.140;-75.616;2023-03-14T03:40:35;100068.41;;;2.01
74915;BMP280;63475;45.140;-75.616;2023-03-14T03:41:36;100031.97;;;1.85
74915;BMP280;63475;45.140;-75.616;2023-03-14T03:42:37;100060.56;;;2.01
74915;BMP280;63475;45.140;-75.616;2023-03-14T03:43:38;100059.81;;;2.00
74915;BMP280;63475;45.140;-75.616;2023-03-14T03:44:39;100056.44;;;2.00
74915;BMP280;63475;45.140;-75.616;2023-03-14T03:45:40;100059.81;;;2.00
74915;BMP280;63475;45.140;-75.616;2023-03-14T03:46:41;100038.69;;;1.86
74915;BMP280;63475;45.140;-75.616;2023-03-14T03:47:42;100058.31;;;1.99
74915;BMP280;63475;45.140;-75.616;2023-03-14T03:48:43;100063.53;;;1.99
74915;BMP280;63475;45.140;-75.616;2023-03-14T03:49:44;100048.09;;;1.91
74915;BMP280;63475;45.140;-75.616;2023-03-14T03:50:46;100047.34;;;1.90
74915;BMP280;63475;45.140;-75.616;2023-03-14T03:51:47;100058.31;;;1.99
74915;BMP280;63475;45.140;-75.616;2023-03-14T03:52:48;100053.09;;;1.99
74915;BMP280;63475;45.140;-75.616;2023-03-14T03:53:49;100035.31;;;1.86
74915;BMP280;63475;45.140;-75.616;2023-03-14T03:54:50;100049.72;;;1.99
74915;BMP280;63475;45.140;-75.616;2023-03-14T03:55:51;100056.81;;;1.98
74915;BMP280;63475;45.140;-75.616;2023-03-14T03:56:52;100049.00;;;1.98
74915;BMP280;63475;45.140;-75.616;2023-03-14T03:57:53;100047.84;;;1.99
74915;BMP280;63475;45.140;-75.616;2023-03-14T03:58:54;100049.72;;;1.99
74915;BMP280;63475;45.140;-75.616;2023-03-14T03:59:55;100051.59;;;1.98
74915;BMP280;63475;45.140;-75.616;2023-03-14T04:00:56;100027.56;;;1.89
74915;BMP280;63475;45.140;-75.616;2023-03-14T04:01:56;100043.34;;;1.96
74915;BMP280;63475;45.140;-75.616;2023-03-14T04:02:57;100044.50;;;1.99
74915;BMP280;63475;45.140;-75.616;2023-03-14T04:03:59;100045.25;;;1.99
74915;BMP280;63475;45.140;-75.616;2023-03-14T04:05:00;100051.59;;;1.98
74915;BMP280;63475;45.140;-75.616;2023-03-14T04:06:04;100044.50;;;1.99
74915;BMP280;63475;45.140;-75.616;2023-03-14T04:07:05;100039.28;;;1.99
74915;BMP280;63475;45.140;-75.616;2023-03-14T04:08:06;100038.09;;;1.96
74915;BMP280;63475;45.140;-75.616;2023-03-14T04:09:08;100018.91;;;1.85
74915;BMP280;63475;45.140;-75.616;2023-03-14T04:10:10;100026.84;;;1.92
74915;BMP280;63475;45.140;-75.616;2023-03-14T04:11:11;100041.88;;;1.99
74915;BMP280;63475;45.140;-75.616;2023-03-14T04:12:12;100041.88;;;1.99
74915;BMP280;63475;45.140;-75.616;2023-03-14T04:13:13;100034.44;;;1.97
74915;BMP280;63475;45.140;-75.616;2023-03-14T04:14:14;100041.16;;;1.98
74915;BMP280;63475;45.140;-75.616;2023-03-14T04:15:15;100038.09;;;1.96
74915;BMP280;63475;45.140;-75.616;2023-03-14T04:16:19;100035.19;;;1.98
74915;BMP280;63475;45.140;-75.616;2023-03-14T04:17:20;100036.59;;;1.95
74915;BMP280;63475;45.140;-75.616;2023-03-14T04:18:21;100033.66;;;1.97
74915;BMP280;63475;45.140;-75.616;2023-03-14T04:19:25;100035.50;;;1.96
74915;BMP280;63475;45.140;-75.616;2023-03-14T04:20:26;100006.16;;;1.80
74915;BMP280;63475;45.140;-75.616;2023-03-14T04:21:27;100006.84;;;1.77
74915;BMP280;63475;45.140;-75.616;2023-03-14T04:22:28;100033.59;;;1.93
74915;BMP280;63475;45.140;-75.616;2023-03-14T04:23:29;100023.09;;;1.90
74915;BMP280;63475;45.140;-75.616;2023-03-14T04:24:30;100031.66;;;1.90
74915;BMP280;63475;45.140;-75.616;2023-03-14T04:25:31;100037.34;;;1.96
74915;BMP280;63475;45.140;-75.616;2023-03-14T04:26:32;100031.38;;;1.95
74915;BMP280;63475;45.140;-75.616;2023-03-14T04:27:33;100031.38;;;1.95
74915;BMP280;63475;45.140;-75.616;2023-03-14T04:28:34;100035.84;;;1.95
74915;BMP280;63475;45.140;-75.616;2023-03-14T04:29:37;100028.75;;;1.95
74915;BMP280;63475;45.140;-75.616;2023-03-14T04:30:38;100002.78;;;1.80
74915;BMP280;63475;45.140;-75.616;2023-03-14T04:31:39;100033.25;;;1.95
74915;BMP280;63475;45.140;-75.616;2023-03-14T04:32:40;100021.16;;;1.87
74915;BMP280;63475;45.140;-75.616;2023-03-14T04:33:41;100022.78;;;1.95
74915;BMP280;63475;45.140;-75.616;2023-03-14T04:34:42;99999.41;;;1.79
74915;BMP280;63475;45.140;-75.616;2023-03-14T04:35:43;100028.00;;;1.95
74915;BMP280;63475;45.140;-75.616;2023-03-14T04:36:44;100022.78;;;1.95
74915;BMP280;63475;45.140;-75.616;2023-03-14T04:37:45;100024.66;;;1.94
74915;BMP280;63475;45.140;-75.616;2023-03-14T04:38:49;100028.75;;;1.95
74915;BMP280;63475;45.140;-75.616;2023-03-14T04:39:50;100022.78;;;1.95
74915;BMP280;63475;45.140;-75.616;2023-03-14T04:40:51;100027.25;;;1.94
74915;BMP280;63475;45.140;-75.616;2023-03-14T04:41:52;100021.28;;;1.94
74915;BMP280;63475;45.140;-75.616;2023-03-14T04:42:53;100024.66;;;1.94
74915;BMP280;63475;45.140;-75.616;2023-03-14T04:43:54;99980.69;;;1.74
74915;BMP280;63475;45.140;-75.616;2023-03-14T04:44:54;100016.81;;;1.94
74915;BMP280;63475;45.140;-75.616;2023-03-14T04:45:57;100017.91;;;1.93
74915;BMP280;63475;45.140;-75.616;2023-03-14T04:46:58;100013.44;;;1.94
74915;BMP280;63475;45.140;-75.616;2023-03-14T04:47:59;100008.16;;;1.90
74915;BMP280;63475;45.140;-75.616;2023-03-14T04:49:00;100016.06;;;1.94
74915;BMP280;63475;45.140;-75.616;2023-03-14T04:50:01;100017.56;;;1.95
74915;BMP280;63475;45.140;-75.616;2023-03-14T04:51:02;100007.47;;;1.93
74915;BMP280;63475;45.140;-75.616;2023-03-14T04:52:03;100010.09;;;1.93
74915;BMP280;63475;45.140;-75.616;2023-03-14T04:53:04;100008.56;;;1.92
74915;BMP280;63475;45.140;-75.616;2023-03-14T04:54:05;100001.44;;;1.89
74915;BMP280;63475;45.140;-75.616;2023-03-14T04:55:07;99997.66;;;1.87
74915;BMP280;63475;45.140;-75.616;2023-03-14T04:56:08;100002.25;;;1.93
74915;BMP280;63475;45.140;-75.616;2023-03-14T04:57:09;99996.16;;;1.86
74915;BMP280;63475;45.140;-75.616;2023-03-14T04:58:10;100005.56;;;1.90
74915;BMP280;63475;45.140;-75.616;2023-03-14T04:59:11;100010.09;;;1.93
74915;BMP280;63475;45.140;-75.616;2023-03-14T05:00:12;99995.81;;;1.87
74915;BMP280;63475;45.140;-75.616;2023-03-14T05:01:13;100006.72;;;1.93
74915;BMP280;63475;45.140;-75.616;2023-03-14T05:02:14;100000.75;;;1.92
74915;BMP280;63475;45.140;-75.616;2023-03-14T05:03:16;99997.38;;;1.92
74915;BMP280;63475;45.140;-75.616;2023-03-14T05:04:17;99960.75;;;1.62
74915;BMP280;63475;45.140;-75.616;2023-03-14T05:05:19;99989.78;;;1.83
74915;BMP280;63475;45.140;-75.616;2023-03-14T05:06:20;100001.50;;;1.93
74915;BMP280;63475;45.140;-75.616;2023-03-14T05:07:21;99999.22;;;1.91
74915;BMP280;63475;45.140;-75.616;2023-03-14T05:08:21;99992.91;;;1.92
74915;BMP280;63475;45.140;-75.616;2023-03-14T05:09:22;99991.75;;;1.90
74915;BMP280;63475;45.140;-75.616;2023-03-14T05:10:23;99996.28;;;1.93
74915;BMP280;63475;45.140;-75.616;2023-03-14T05:11:24;99992.44;;;1.87
74915;BMP280;63475;45.140;-75.616;2023-03-14T05:12:25;99996.63;;;1.91
74915;BMP280;63475;45.140;-75.616;2023-03-14T05:13:26;99992.50;;;1.90
74915;BMP280;63475;45.140;-75.616;2023-03-14T05:14:27;99987.97;;;1.87
74915;BMP280;63475;45.140;-75.616;2023-03-14T05:15:28;99995.53;;;1.92
74915;BMP280;63475;45.140;-75.616;2023-03-14T05:16:29;99961.28;;;1.71
74915;BMP280;63475;45.140;-75.616;2023-03-14T05:17:32;99990.28;;;1.92
74915;BMP280;63475;45.140;-75.616;2023-03-14T05:18:33;99986.47;;;1.86
74915;BMP280;63475;45.140;-75.616;2023-03-14T05:19:35;99991.41;;;1.91
74915;BMP280;63475;45.140;-75.616;2023-03-14T05:20:36;99988.78;;;1.91
74915;BMP280;63475;45.140;-75.616;2023-03-14T05:21:37;99981.72;;;1.92
74915;BMP280;63475;45.140;-75.616;2023-03-14T05:22:39;99989.53;;;1.92
74915;BMP280;63475;45.140;-75.616;2023-03-14T05:23:40;99988.03;;;1.91
74915;BMP280;63475;45.140;-75.616;2023-03-14T05:24:41;99984.66;;;1.90
74915;BMP280;63475;45.140;-75.616;2023-03-14T05:25:43;99987.28;;;1.90
74915;BMP280;63475;45.140;-75.616;2023-03-14T05:26:44;99987.28;;;1.90
74915;BMP280;63475;45.140;-75.616;2023-03-14T05:27:45;99987.28;;;1.90
74915;BMP280;63475;45.140;-75.616;2023-03-14T05:28:46;99985.78;;;1.89
74915;BMP280;63475;45.140;-75.616;2023-03-14T05:29:47;99988.03;;;1.91
74915;BMP280;63475;45.140;-75.616;2023-03-14T05:30:48;99988.78;;;1.91
74915;BMP280;63475;45.140;-75.616;2023-03-14T05:31:49;99990.66;;;1.91
74915;BMP280;63475;45.140;-75.616;2023-03-14T05:32:50;99988.78;;;1.91
74915;BMP280;63475;45.140;-75.616;2023-03-14T05:33:51;99982.06;;;1.90
74915;BMP280;63475;45.140;-75.616;2023-03-14T05:34:52;99982.06;;;1.90
74915;BMP280;63475;45.140;-75.616;2023-03-14T05:35:53;99987.28;;;1.90
74915;BMP280;63475;45.140;-75.616;2023-03-14T05:36:54;99981.31;;;1.90
74915;BMP280;63475;45.140;-75.616;2023-03-14T05:37:56;99977.19;;;1.89
74915;BMP280;63475;45.140;-75.616;2023-03-14T05:38:57;99966.63;;;1.82
74915;BMP280;63475;45.140;-75.616;2023-03-14T05:39:58;99976.44;;;1.88
74915;BMP280;63475;45.140;-75.616;2023-03-14T05:40:59;99965.94;;;1.85
74915;BMP280;63475;45.140;-75.616;2023-03-14T05:42:00;99968.25;;;1.90
74915;BMP280;63475;45.140;-75.616;2023-03-14T05:43:01;99970.84;;;1.90
74915;BMP280;63475;45.140;-75.616;2023-03-14T05:44:02;99967.50;;;1.89
74915;BMP280;63475;45.140;-75.616;2023-03-14T05:45:03;99948.31;;;1.78
74915;BMP280;63475;45.140;-75.616;2023-03-14T05:46:04;99961.41;;;1.82
74915;BMP280;63475;45.140;-75.616;2023-03-14T05:47:05;99961.16;;;1.90
74915;BMP280;63475;45.140;-75.616;2023-03-14T05:48:06;99971.63;;;1.90
74915;BMP280;63475;45.140;-75.616;2023-03-14T05:49:07;99969.00;;;1.90
74915;BMP280;63475;45.140;-75.616;2023-03-14T05:50:08;99956.59;;;1.84
74915;BMP280;63475;45.140;-75.616;2023-03-14T05:51:09;99963.38;;;1.88
74915;BMP280;63475;45.140;-75.616;2023-03-14T05:52:10;99964.88;;;1.89
74915;BMP280;63475;45.140;-75.616;2023-03-14T05:53:11;99958.16;;;1.88
74915;BMP280;63475;45.140;-75.616;2023-03-14T05:54:12;99957.06;;;1.89
74915;BMP280;63475;45.140;-75.616;2023-03-14T05:55:13;99952.19;;;1.88
74915;BMP280;63475;45.140;-75.616;2023-03-14T05:56:14;99952.94;;;1.88
74915;BMP280;63475;45.140;-75.616;2023-03-14T05:57:15;99929.97;;;1.75